createdAt,value
2023-01-13T00:03:35.162Z,95470.00
2023-01-13T00:07:40.041Z,95450.00
2023-01-13T00:11:42.921Z,95452.00
2023-01-13T00:15:56.930Z,95452.00
2023-01-13T00:19:59.845Z,95458.00
2023-01-13T00:24:02.699Z,95432.00
2023-01-13T00:28:06.277Z,95433.00
2023-01-13T00:32:10.587Z,95421.00
2023-01-13T00:36:15.853Z,95428.00
2023-01-13T00:40:18.845Z,95426.00
2023-01-13T00:44:22.175Z,95415.00
2023-01-13T00:48:27.151Z,95409.00
2023-01-13T00:52:29.928Z,95408.00
2023-01-13T00:56:41.274Z,95408.00
2023-01-13T01:00:45.810Z,95398.00
2023-01-13T01:04:49.904Z,95397.00
2023-01-13T01:08:53.981Z,95392.00
2023-01-13T01:12:56.811Z,95388.00
2023-01-13T01:16:59.697Z,95398.00
2023-01-13T01:21:04.548Z,95386.00
2023-01-13T01:25:08.358Z,95379.00
2023-01-13T01:29:13.997Z,95385.00
2023-01-13T01:33:16.843Z,95392.00
2023-01-13T01:37:28.346Z,95376.00
2023-01-13T01:41:33.281Z,95381.00
2023-01-13T01:45:36.153Z,95377.00
2023-01-13T01:49:39.967Z,95365.00
2023-01-13T01:53:44.635Z,95364.00
2023-01-13T01:57:52.818Z,95363.00
2023-01-13T02:01:55.889Z,95357.00
2023-01-13T02:05:58.887Z,95353.00
2023-01-13T02:10:07.129Z,95346.00
2023-01-13T02:14:10.066Z,95336.00
2023-01-13T02:18:45.264Z,95337.00
2023-01-13T02:23:06.823Z,95337.00
2023-01-13T02:27:37.618Z,95333.00
2023-01-13T02:31:44.429Z,95334.00
2023-01-13T02:35:52.195Z,95325.00
2023-01-13T02:39:59.454Z,95320.00
2023-01-13T02:44:06.900Z,95313.00
2023-01-13T02:48:14.826Z,95323.00
2023-01-13T02:52:23.686Z,95315.00
2023-01-13T02:56:27.900Z,95304.00
2023-01-13T03:00:33.440Z,95311.00
2023-01-13T03:04:52.577Z,95311.00
2023-01-13T03:09:04.445Z,95303.00
2023-01-13T03:13:17.106Z,95286.00
2023-01-13T03:17:28.482Z,95286.00
2023-01-13T03:21:40.130Z,95288.00
2023-01-13T03:25:50.111Z,95285.00
2023-01-13T03:29:58.628Z,95283.00
2023-01-13T03:34:05.313Z,95293.00
2023-01-13T03:38:14.281Z,95298.00
2023-01-13T03:42:21.485Z,95298.00
2023-01-13T03:46:32.874Z,95293.00
2023-01-13T03:50:38.862Z,95282.00
2023-01-13T03:54:48.624Z,95283.00
2023-01-13T03:58:53.572Z,95285.00
2023-01-13T04:03:02.516Z,95263.00
2023-01-13T04:07:14.690Z,95282.00
2023-01-13T04:11:26.657Z,95284.00
2023-01-13T04:15:32.766Z,95278.00
2023-01-13T04:19:35.551Z,95282.00
2023-01-13T04:23:38.425Z,95264.00
2023-01-13T04:27:42.646Z,95268.00
2023-01-13T04:31:45.495Z,95255.00
2023-01-13T04:35:48.885Z,95265.00
2023-01-13T04:39:51.771Z,95272.00
2023-01-13T04:43:56.018Z,95269.00
2023-01-13T04:47:59.006Z,95265.00
2023-01-13T04:52:03.830Z,95248.00
2023-01-13T04:56:07.081Z,95244.00
2023-01-13T05:00:14.426Z,95242.00
2023-01-13T05:04:17.312Z,95244.00
2023-01-13T05:08:20.219Z,95246.00
2023-01-13T05:12:40.519Z,95234.00
2023-01-13T05:17:04.252Z,95251.00
2023-01-13T05:21:27.624Z,95250.00
2023-01-13T05:25:29.612Z,95237.00
2023-01-13T05:29:32.579Z,95234.00
2023-01-13T05:33:36.912Z,95251.00
2023-01-13T05:37:39.868Z,95249.00
2023-01-13T05:42:00.173Z,95245.00
2023-01-13T05:46:04.668Z,95245.00
2023-01-13T05:50:10.461Z,95234.00
2023-01-13T05:54:13.444Z,95236.00
2023-01-13T05:58:18.344Z,95244.00
2023-01-13T06:02:21.276Z,95246.00
2023-01-13T06:06:25.523Z,95240.00
2023-01-13T06:10:29.590Z,95252.00
2023-01-13T06:14:40.009Z,95241.00
2023-01-13T06:18:42.971Z,95257.00
2023-01-13T06:22:49.884Z,95259.00
2023-01-13T06:26:52.871Z,95246.00
2023-01-13T06:30:58.846Z,95255.00
2023-01-13T06:35:06.863Z,95271.00
2023-01-13T06:39:15.232Z,95271.00
2023-01-13T06:43:18.546Z,95264.00
2023-01-13T06:47:22.322Z,95248.00
2023-01-13T06:51:25.385Z,95260.00
2023-01-13T06:55:29.635Z,95253.00
2023-01-13T06:59:34.312Z,95257.00
2023-01-13T07:03:37.194Z,95261.00
2023-01-13T07:07:40.087Z,95259.00
2023-01-13T07:11:44.287Z,95272.00
2023-01-13T07:15:57.999Z,95259.00
2023-01-13T07:20:00.896Z,95264.00
2023-01-13T07:24:03.872Z,95270.00
2023-01-13T07:28:07.992Z,95288.00
2023-01-13T07:32:10.881Z,95280.00
2023-01-13T07:36:14.027Z,95275.00
2023-01-13T07:40:17.660Z,95271.00
2023-01-13T07:44:21.949Z,95276.00
2023-01-13T07:48:24.795Z,95282.00
2023-01-13T07:52:27.627Z,95287.00
2023-01-13T07:56:30.564Z,95283.00
2023-01-13T08:00:34.930Z,95268.00
2023-01-13T08:04:40.585Z,95259.00
2023-01-13T08:08:43.463Z,95267.00
2023-01-13T08:13:06.692Z,95264.00
2023-01-13T08:17:11.381Z,95279.00
2023-01-13T08:21:17.252Z,95267.00
2023-01-13T08:25:20.156Z,95271.00
2023-01-13T08:29:23.524Z,95288.00
2023-01-13T08:33:27.776Z,95273.00
2023-01-13T08:37:30.675Z,95282.00
2023-01-13T08:41:50.957Z,95291.00
2023-01-13T08:46:04.595Z,95281.00
2023-01-13T08:50:11.011Z,95289.00
2023-01-13T08:54:14.370Z,95304.00
2023-01-13T08:58:17.221Z,95307.00
2023-01-13T09:02:22.196Z,95305.00
2023-01-13T09:06:26.459Z,95300.00
2023-01-13T09:10:29.580Z,95317.00
2023-01-13T09:14:34.490Z,95313.00
2023-01-13T09:18:37.358Z,95313.00
2023-01-13T09:22:41.698Z,95311.00
2023-01-13T09:26:44.545Z,95324.00
2023-01-13T09:30:47.418Z,95328.00
2023-01-13T09:35:02.817Z,95329.00
2023-01-13T09:39:07.218Z,95319.00
2023-01-13T09:43:38.203Z,95311.00
2023-01-13T09:47:47.532Z,95321.00
2023-01-13T09:51:59.272Z,95316.00
2023-01-13T09:56:03.535Z,95318.00
2023-01-13T10:00:12.861Z,95311.00
2023-01-13T10:04:16.603Z,95322.00
2023-01-13T10:08:24.443Z,95315.00
2023-01-13T10:12:46.099Z,95297.00
2023-01-13T10:16:54.832Z,95293.00
2023-01-13T10:21:03.668Z,95285.00
2023-01-13T10:25:24.783Z,95276.00
2023-01-13T10:29:30.670Z,95279.00
2023-01-13T10:33:33.589Z,95280.00
2023-01-13T10:37:36.417Z,95291.00
2023-01-13T10:41:39.295Z,95284.00
2023-01-13T10:45:52.025Z,95292.00
2023-01-13T10:50:20.667Z,95305.00
2023-01-13T10:54:25.433Z,95290.00
2023-01-13T10:58:28.842Z,95299.00
2023-01-13T11:02:35.873Z,95291.00
2023-01-13T11:06:42.568Z,95295.00
2023-01-13T11:10:47.518Z,95288.00
2023-01-13T11:14:51.447Z,95280.00
2023-01-13T11:19:11.790Z,95280.00
2023-01-13T11:23:21.827Z,95269.00
2023-01-13T11:27:31.323Z,95280.00
2023-01-13T11:31:39.633Z,95266.00
2023-01-13T11:45:22.545Z,95285.00
2023-01-13T11:49:28.213Z,95296.00
2023-01-13T11:53:54.873Z,95301.00
2023-01-13T11:58:13.146Z,95296.00
2023-01-13T12:02:27.900Z,95308.00
2023-01-13T12:06:35.591Z,95312.00
2023-01-13T12:10:54.714Z,95304.00
2023-01-13T12:15:32.682Z,95299.00
2023-01-13T12:19:36.928Z,95303.00
2023-01-13T12:23:44.834Z,95300.00
2023-01-13T12:27:52.769Z,95302.00
2023-01-13T12:31:56.440Z,95313.00
2023-01-13T12:40:38.631Z,95322.00
2023-01-13T12:45:07.229Z,95309.00
2023-01-13T12:49:29.820Z,95317.00
2023-01-13T12:53:38.651Z,95314.00
2023-01-13T12:58:00.228Z,95315.00
2023-01-13T13:02:29.366Z,95316.00
2023-01-13T13:06:32.603Z,95345.00
2023-01-13T13:11:00.019Z,95343.00
2023-01-13T13:15:21.301Z,95322.00
2023-01-13T13:19:47.030Z,95317.00
2023-01-13T13:24:05.740Z,95326.00
2023-01-13T13:28:19.215Z,95330.00
2023-01-13T13:32:35.195Z,95322.00
2023-01-13T13:36:52.062Z,95311.00
2023-01-13T13:41:12.820Z,95334.00
2023-01-13T13:45:35.272Z,95327.00
2023-01-13T13:49:42.976Z,95338.00
2023-01-13T13:53:46.945Z,95331.00
2023-01-13T13:57:51.430Z,95352.00
2023-01-13T14:02:01.410Z,95391.00
2023-01-13T14:06:19.851Z,95486.00
2023-01-13T14:10:25.851Z,95477.00
2023-01-13T14:14:29.225Z,95500.00
2023-01-13T14:18:34.538Z,95491.00
2023-01-13T14:22:38.678Z,95502.00
2023-01-13T14:26:41.781Z,95494.00
2023-01-13T14:30:44.873Z,95497.00
2023-01-13T14:34:48.490Z,95485.00
2023-01-13T14:39:26.007Z,95486.00
2023-01-13T14:43:28.875Z,95495.00
2023-01-13T14:47:33.952Z,95494.00
2023-01-13T14:51:36.955Z,95486.00
2023-01-13T14:55:42.048Z,95485.00
2023-01-13T14:59:51.736Z,95492.00
2023-01-13T15:03:54.635Z,95507.00
2023-01-13T15:07:59.909Z,95533.00
2023-01-13T15:12:17.806Z,95508.00
2023-01-13T15:16:24.891Z,95529.00
2023-01-13T15:20:28.953Z,95525.00
2023-01-13T15:24:31.969Z,95521.00
2023-01-13T15:28:36.171Z,95536.00
2023-01-13T15:32:39.392Z,95536.00
2023-01-13T15:36:42.344Z,95537.00
2023-01-13T15:40:45.776Z,95548.00
2023-01-13T15:45:07.402Z,95552.00
2023-01-13T15:49:21.602Z,95560.00
2023-01-13T15:53:25.014Z,95567.00
2023-01-13T15:57:30.162Z,95556.00
2023-01-13T16:01:34.387Z,95557.00
2023-01-13T16:05:37.339Z,95575.00
2023-01-13T16:09:40.153Z,95575.00
2023-01-13T16:13:43.104Z,95589.00
2023-01-13T16:17:47.667Z,95576.00
2023-01-13T16:21:50.457Z,95576.00
2023-01-13T16:25:53.258Z,95585.00
2023-01-13T16:29:56.259Z,95587.00
2023-01-13T16:34:01.194Z,95599.00
2023-01-13T16:38:04.035Z,95594.00
2023-01-13T16:42:06.916Z,95602.00
2023-01-13T16:46:18.362Z,95606.00
2023-01-13T16:50:34.848Z,95626.00
2023-01-13T16:54:37.950Z,95633.00
2023-01-13T16:58:40.847Z,95636.00
2023-01-13T17:02:43.911Z,95617.00
2023-01-13T17:06:55.278Z,95640.00
2023-01-13T17:10:58.124Z,95645.00
2023-01-13T17:15:00.951Z,95634.00
2023-01-13T17:19:03.750Z,95621.00
2023-01-13T17:23:08.101Z,95615.00
2023-01-13T17:27:11.030Z,95618.00
2023-01-13T17:31:13.858Z,95622.00
2023-01-13T17:35:19.409Z,95621.00
2023-01-13T17:39:25.423Z,95641.00
2023-01-13T17:43:28.295Z,95644.00
2023-01-13T17:47:31.204Z,95661.00
2023-01-13T17:51:34.056Z,95660.00
2023-01-13T17:55:38.408Z,95652.00
2023-01-13T17:59:41.945Z,95654.00
2023-01-13T18:03:45.201Z,95672.00
2023-01-13T18:07:47.977Z,95679.00
2023-01-13T18:11:52.389Z,95675.00
2023-01-13T18:16:02.887Z,95669.00
2023-01-13T18:20:23.906Z,95670.00
2023-01-13T18:24:44.559Z,95670.00
2023-01-13T18:28:48.658Z,95674.00
2023-01-13T18:32:51.610Z,95703.00
2023-01-13T18:36:54.488Z,95709.00
2023-01-13T18:40:57.299Z,95711.00
2023-01-13T18:45:01.465Z,95729.00
2023-01-13T18:49:04.315Z,95731.00
2023-01-13T18:53:08.342Z,95736.00
2023-01-13T18:57:11.359Z,95719.00
2023-01-13T19:01:16.232Z,95728.00
2023-01-13T19:05:19.589Z,95717.00
2023-01-13T19:09:24.845Z,95736.00
2023-01-13T19:13:27.729Z,95739.00
2023-01-13T19:17:34.290Z,95727.00
2023-01-13T19:21:37.106Z,95733.00
2023-01-13T19:25:40.000Z,95730.00
2023-01-13T19:29:50.937Z,95725.00
2023-01-13T19:33:56.804Z,95745.00
2023-01-13T19:37:59.650Z,95749.00
2023-01-13T19:42:20.544Z,95758.00
2023-01-13T19:46:23.412Z,95771.00
2023-01-13T19:50:27.784Z,95781.00
2023-01-13T19:54:30.698Z,95790.00
2023-01-13T19:58:34.111Z,95800.00
2023-01-13T20:02:37.053Z,95801.00
2023-01-13T20:06:41.678Z,95824.00
2023-01-13T20:10:46.172Z,95812.00
2023-01-13T20:14:49.996Z,95849.00
2023-01-13T20:18:52.999Z,95864.00
2023-01-13T20:22:58.116Z,95886.00
2023-01-13T20:27:02.122Z,95914.00
2023-01-13T20:31:07.235Z,95902.00
2023-01-13T20:35:11.094Z,95898.00
2023-01-13T20:39:17.546Z,95889.00
2023-01-13T20:43:20.354Z,95894.00
2023-01-13T20:47:23.766Z,95895.00
2023-01-13T20:51:26.559Z,95906.00
2023-01-13T20:55:30.779Z,95925.00
2023-01-13T20:59:33.830Z,95930.00
2023-01-13T21:03:36.762Z,95907.00
2023-01-13T21:07:39.558Z,95923.00
2023-01-13T21:12:01.182Z,95919.00
2023-01-13T21:16:04.397Z,95922.00
2023-01-13T21:20:09.027Z,95906.00
2023-01-13T21:24:11.891Z,95921.00
2023-01-13T21:28:17.374Z,95927.00
2023-01-13T21:32:20.391Z,95933.00
2023-01-13T21:36:23.691Z,95935.00
2023-01-13T21:40:26.504Z,95939.00
2023-01-13T21:45:12.923Z,95939.00
2023-01-13T21:49:15.720Z,95945.00
2023-01-13T21:53:18.579Z,95952.00
2023-01-13T21:57:21.333Z,95955.00
2023-01-13T22:01:25.572Z,95954.00
2023-01-13T22:05:28.547Z,95961.00
2023-01-13T22:09:31.487Z,95964.00
2023-01-13T22:13:51.930Z,95954.00
2023-01-13T22:17:56.771Z,95953.00
2023-01-13T22:21:59.597Z,95951.00
2023-01-13T22:26:02.877Z,95956.00
2023-01-13T22:30:06.769Z,95951.00
2023-01-13T22:34:13.277Z,95970.00
2023-01-13T22:38:16.072Z,95971.00
2023-01-13T22:42:18.875Z,95978.00
2023-01-13T22:46:22.896Z,95983.00
2023-01-13T22:50:27.092Z,95991.00
2023-01-13T22:54:29.933Z,95994.00
2023-01-13T22:58:33.095Z,95984.00
2023-01-13T23:02:35.850Z,96001.00
2023-01-13T23:06:40.678Z,95998.00
2023-01-13T23:10:43.878Z,96000.00
2023-01-13T23:14:46.667Z,96013.00
2023-01-13T23:18:49.501Z,96019.00
2023-01-13T23:22:53.679Z,96017.00
2023-01-13T23:26:56.478Z,96002.00
2023-01-13T23:30:59.366Z,96002.00
2023-01-13T23:35:02.249Z,95992.00
2023-01-13T23:39:06.460Z,95995.00
2023-01-13T23:43:09.262Z,95999.00
2023-01-13T23:47:12.976Z,95999.00
2023-01-13T23:51:16.553Z,95980.00
2023-01-13T23:55:20.788Z,95975.00
2023-01-13T23:59:23.775Z,95956.00
